Ashley, Ohio
Current Conditions -  °F | °C
As of 6:20 PM on Friday 19 Dec 2014 (Local Time) from KDLZ Reporting Station
Overcast Overcast  
Wind Chill: -5°   Ceiling: 1800
Heat Index: -2°   Visibility: 10mi
Dew Point: -5°   Wind: 5mph
Humidity: 80%   Direction: 310°NW
Pressure: 30.3"   Gusts: NA
Location:  40.41°N, 82.96°W
Report Text: KDLZ 192320Z AUTO 31004KT 10SM OVC018 M02/M05 A3030 RMK AO2
Loading
Personal Weather Stations






























Interactive Weather Map New forecast layout! Learn more

10-Day Weather Forecast

Advertisements
Track Severe Weather on mobile